sensor_id;sensor_type;location;lat;lon;timestamp;P1;durP1;ratioP1;P2;durP2;ratioP2
68089;SDS011;54880;50.986;6.990;2024-02-04T00:01:46;5.53;;;1.87;;
68089;SDS011;54880;50.986;6.990;2024-02-04T00:04:11;4.73;;;1.30;;
68089;SDS011;54880;50.986;6.990;2024-02-04T00:06:36;3.63;;;1.00;;
68089;SDS011;54880;50.986;6.990;2024-02-04T00:09:02;3.53;;;0.90;;
68089;SDS011;54880;50.986;6.990;2024-02-04T00:11:29;3.05;;;0.75;;
68089;SDS011;54880;50.986;6.990;2024-02-04T00:13:54;5.23;;;1.50;;
68089;SDS011;54880;50.986;6.990;2024-02-04T00:16:19;4.67;;;1.57;;
68089;SDS011;54880;50.986;6.990;2024-02-04T00:18:44;5.07;;;1.50;;
68089;SDS011;54880;50.986;6.990;2024-02-04T00:21:10;5.70;;;1.77;;
68089;SDS011;54880;50.986;6.990;2024-02-04T00:23:35;5.40;;;1.90;;
68089;SDS011;54880;50.986;6.990;2024-02-04T00:26:00;5.93;;;2.20;;
68089;SDS011;54880;50.986;6.990;2024-02-04T00:28:25;6.20;;;2.43;;
68089;SDS011;54880;50.986;6.990;2024-02-04T00:30:53;6.75;;;2.63;;
68089;SDS011;54880;50.986;6.990;2024-02-04T00:33:20;7.40;;;2.97;;
68089;SDS011;54880;50.986;6.990;2024-02-04T00:35:46;7.75;;;3.85;;
68089;SDS011;54880;50.986;6.990;2024-02-04T00:38:11;9.37;;;4.10;;
68089;SDS011;54880;50.986;6.990;2024-02-04T00:40:37;9.47;;;4.13;;
68089;SDS011;54880;50.986;6.990;2024-02-04T00:43:02;10.87;;;4.60;;
68089;SDS011;54880;50.986;6.990;2024-02-04T00:45:27;11.83;;;4.90;;
68089;SDS011;54880;50.986;6.990;2024-02-04T00:47:52;12.53;;;5.63;;
68089;SDS011;54880;50.986;6.990;2024-02-04T00:50:18;13.30;;;6.10;;
68089;SDS011;54880;50.986;6.990;2024-02-04T00:52:44;12.80;;;5.93;;
68089;SDS011;54880;50.986;6.990;2024-02-04T00:55:09;11.70;;;4.93;;
68089;SDS011;54880;50.986;6.990;2024-02-04T00:57:34;11.60;;;5.50;;
68089;SDS011;54880;50.986;6.990;2024-02-04T01:00:00;12.23;;;5.60;;
68089;SDS011;54880;50.986;6.990;2024-02-04T01:02:25;11.47;;;5.40;;
68089;SDS011;54880;50.986;6.990;2024-02-04T01:04:50;11.53;;;5.80;;
68089;SDS011;54880;50.986;6.990;2024-02-04T01:07:16;10.82;;;5.45;;
68089;SDS011;54880;50.986;6.990;2024-02-04T01:09:41;11.57;;;5.00;;
68089;SDS011;54880;50.986;6.990;2024-02-04T01:12:09;9.63;;;5.05;;
68089;SDS011;54880;50.986;6.990;2024-02-04T01:14:34;9.40;;;4.40;;
68089;SDS011;54880;50.986;6.990;2024-02-04T01:16:59;9.00;;;4.38;;
68089;SDS011;54880;50.986;6.990;2024-02-04T01:19:25;9.40;;;3.80;;
68089;SDS011;54880;50.986;6.990;2024-02-04T01:21:50;8.47;;;4.10;;
68089;SDS011;54880;50.986;6.990;2024-02-04T01:24:16;7.80;;;3.37;;
68089;SDS011;54880;50.986;6.990;2024-02-04T01:26:41;8.00;;;2.90;;
68089;SDS011;54880;50.986;6.990;2024-02-04T01:29:06;6.90;;;3.10;;
68089;SDS011;54880;50.986;6.990;2024-02-04T01:31:32;7.13;;;3.00;;
68089;SDS011;54880;50.986;6.990;2024-02-04T01:33:59;8.93;;;3.15;;
68089;SDS011;54880;50.986;6.990;2024-02-04T01:36:24;7.47;;;3.20;;
68089;SDS011;54880;50.986;6.990;2024-02-04T01:38:49;6.87;;;3.10;;
68089;SDS011;54880;50.986;6.990;2024-02-04T01:41:14;7.50;;;2.97;;
68089;SDS011;54880;50.986;6.990;2024-02-04T01:43:40;6.17;;;2.07;;
68089;SDS011;54880;50.986;6.990;2024-02-04T01:46:05;6.90;;;2.30;;
68089;SDS011;54880;50.986;6.990;2024-02-04T01:48:30;6.20;;;2.20;;
68089;SDS011;54880;50.986;6.990;2024-02-04T01:50:56;6.28;;;2.47;;
68089;SDS011;54880;50.986;6.990;2024-02-04T01:53:23;6.23;;;2.13;;
68089;SDS011;54880;50.986;6.990;2024-02-04T01:55:49;6.35;;;2.40;;
68089;SDS011;54880;50.986;6.990;2024-02-04T01:58:14;6.33;;;2.33;;
68089;SDS011;54880;50.986;6.990;2024-02-04T02:00:40;6.30;;;2.33;;
68089;SDS011;54880;50.986;6.990;2024-02-04T02:03:05;6.78;;;2.95;;
68089;SDS011;54880;50.986;6.990;2024-02-04T02:05:31;7.53;;;3.00;;
68089;SDS011;54880;50.986;6.990;2024-02-04T02:07:56;7.38;;;2.92;;
68089;SDS011;54880;50.986;6.990;2024-02-04T02:10:22;8.50;;;3.15;;
68089;SDS011;54880;50.986;6.990;2024-02-04T02:15:20;7.90;;;2.83;;
68089;SDS011;54880;50.986;6.990;2024-02-04T02:17:58;7.57;;;3.10;;
68089;SDS011;54880;50.986;6.990;2024-02-04T02:23:13;8.00;;;3.67;;
68089;SDS011;54880;50.986;6.990;2024-02-04T02:25:39;8.75;;;3.03;;
68089;SDS011;54880;50.986;6.990;2024-02-04T02:28:05;7.70;;;2.70;;
68089;SDS011;54880;50.986;6.990;2024-02-04T02:30:31;7.18;;;3.00;;
68089;SDS011;54880;50.986;6.990;2024-02-04T02:32:57;8.50;;;3.30;;
68089;SDS011;54880;50.986;6.990;2024-02-04T02:35:22;7.87;;;3.13;;
68089;SDS011;54880;50.986;6.990;2024-02-04T02:37:55;9.03;;;3.40;;
68089;SDS011;54880;50.986;6.990;2024-02-04T02:40:38;7.93;;;3.03;;
68089;SDS011;54880;50.986;6.990;2024-02-04T02:43:04;8.30;;;3.15;;
68089;SDS011;54880;50.986;6.990;2024-02-04T02:45:30;7.10;;;2.90;;
68089;SDS011;54880;50.986;6.990;2024-02-04T02:47:57;8.73;;;3.80;;
68089;SDS011;54880;50.986;6.990;2024-02-04T02:50:23;7.72;;;3.72;;
68089;SDS011;54880;50.986;6.990;2024-02-04T02:52:48;7.63;;;3.33;;
68089;SDS011;54880;50.986;6.990;2024-02-04T02:55:14;7.93;;;3.73;;
68089;SDS011;54880;50.986;6.990;2024-02-04T02:57:39;7.20;;;3.30;;
68089;SDS011;54880;50.986;6.990;2024-02-04T03:00:05;8.47;;;3.30;;
68089;SDS011;54880;50.986;6.990;2024-02-04T03:02:31;8.35;;;3.17;;
68089;SDS011;54880;50.986;6.990;2024-02-04T03:04:57;9.20;;;3.17;;
68089;SDS011;54880;50.986;6.990;2024-02-04T03:07:22;7.97;;;3.50;;
68089;SDS011;54880;50.986;6.990;2024-02-04T03:09:47;9.23;;;3.33;;
68089;SDS011;54880;50.986;6.990;2024-02-04T03:12:13;8.77;;;3.50;;
68089;SDS011;54880;50.986;6.990;2024-02-04T03:14:38;6.97;;;2.73;;
68089;SDS011;54880;50.986;6.990;2024-02-04T03:17:03;8.47;;;3.40;;
68089;SDS011;54880;50.986;6.990;2024-02-04T03:19:29;8.23;;;3.23;;
68089;SDS011;54880;50.986;6.990;2024-02-04T03:21:54;12.27;;;3.70;;
68089;SDS011;54880;50.986;6.990;2024-02-04T03:24:19;9.10;;;3.60;;
68089;SDS011;54880;50.986;6.990;2024-02-04T03:26:45;8.95;;;3.90;;
68089;SDS011;54880;50.986;6.990;2024-02-04T03:29:10;9.98;;;3.33;;
68089;SDS011;54880;50.986;6.990;2024-02-04T03:31:35;8.13;;;3.57;;
68089;SDS011;54880;50.986;6.990;2024-02-04T03:34:01;7.93;;;3.47;;
68089;SDS011;54880;50.986;6.990;2024-02-04T03:36:26;10.07;;;3.53;;
68089;SDS011;54880;50.986;6.990;2024-02-04T03:38:52;7.72;;;3.28;;
68089;SDS011;54880;50.986;6.990;2024-02-04T03:41:17;7.87;;;3.20;;
68089;SDS011;54880;50.986;6.990;2024-02-04T03:43:43;7.03;;;3.10;;
68089;SDS011;54880;50.986;6.990;2024-02-04T03:46:12;6.77;;;2.67;;
68089;SDS011;54880;50.986;6.990;2024-02-04T03:48:37;8.32;;;2.50;;
68089;SDS011;54880;50.986;6.990;2024-02-04T03:51:03;7.77;;;2.67;;
68089;SDS011;54880;50.986;6.990;2024-02-04T03:53:28;7.70;;;2.97;;
68089;SDS011;54880;50.986;6.990;2024-02-04T03:55:54;6.65;;;2.65;;
68089;SDS011;54880;50.986;6.990;2024-02-04T03:58:19;7.10;;;2.57;;
68089;SDS011;54880;50.986;6.990;2024-02-04T04:00:45;8.00;;;2.53;;
68089;SDS011;54880;50.986;6.990;2024-02-04T04:03:10;7.73;;;2.67;;
68089;SDS011;54880;50.986;6.990;2024-02-04T04:05:35;7.43;;;2.73;;
68089;SDS011;54880;50.986;6.990;2024-02-04T04:08:01;8.30;;;3.40;;
68089;SDS011;54880;50.986;6.990;2024-02-04T04:10:26;7.77;;;2.83;;
68089;SDS011;54880;50.986;6.990;2024-02-04T04:12:51;7.33;;;3.00;;
68089;SDS011;54880;50.986;6.990;2024-02-04T04:15:16;7.63;;;3.40;;
68089;SDS011;54880;50.986;6.990;2024-02-04T04:17:42;7.30;;;3.00;;
68089;SDS011;54880;50.986;6.990;2024-02-04T04:20:07;6.77;;;2.67;;
68089;SDS011;54880;50.986;6.990;2024-02-04T04:22:32;7.57;;;3.33;;
68089;SDS011;54880;50.986;6.990;2024-02-04T04:24:58;9.30;;;3.03;;
68089;SDS011;54880;50.986;6.990;2024-02-04T04:27:23;8.53;;;2.87;;
68089;SDS011;54880;50.986;6.990;2024-02-04T04:29:48;7.80;;;3.20;;
68089;SDS011;54880;50.986;6.990;2024-02-04T04:32:13;6.33;;;2.70;;
68089;SDS011;54880;50.986;6.990;2024-02-04T04:34:38;7.20;;;2.90;;
68089;SDS011;54880;50.986;6.990;2024-02-04T04:37:04;7.07;;;2.60;;
68089;SDS011;54880;50.986;6.990;2024-02-04T04:39:29;6.63;;;2.70;;
68089;SDS011;54880;50.986;6.990;2024-02-04T04:41:54;8.63;;;2.80;;
68089;SDS011;54880;50.986;6.990;2024-02-04T04:44:20;7.30;;;2.80;;
68089;SDS011;54880;50.986;6.990;2024-02-04T04:46:45;8.83;;;2.83;;
68089;SDS011;54880;50.986;6.990;2024-02-04T04:49:10;7.10;;;3.20;;
68089;SDS011;54880;50.986;6.990;2024-02-04T04:51:35;8.10;;;2.80;;
68089;SDS011;54880;50.986;6.990;2024-02-04T04:54:01;7.80;;;2.80;;
68089;SDS011;54880;50.986;6.990;2024-02-04T04:56:26;6.67;;;2.93;;
68089;SDS011;54880;50.986;6.990;2024-02-04T04:58:51;7.73;;;3.20;;
68089;SDS011;54880;50.986;6.990;2024-02-04T05:01:16;8.83;;;3.10;;
68089;SDS011;54880;50.986;6.990;2024-02-04T05:03:42;7.93;;;2.83;;
68089;SDS011;54880;50.986;6.990;2024-02-04T05:06:07;8.17;;;3.17;;
68089;SDS011;54880;50.986;6.990;2024-02-04T05:08:33;8.37;;;3.67;;
68089;SDS011;54880;50.986;6.990;2024-02-04T05:10:58;8.63;;;3.30;;
68089;SDS011;54880;50.986;6.990;2024-02-04T05:13:23;11.33;;;4.30;;
68089;SDS011;54880;50.986;6.990;2024-02-04T05:15:48;8.80;;;3.50;;
68089;SDS011;54880;50.986;6.990;2024-02-04T05:18:14;8.37;;;3.33;;
68089;SDS011;54880;50.986;6.990;2024-02-04T05:20:39;11.43;;;3.77;;
68089;SDS011;54880;50.986;6.990;2024-02-04T05:23:04;9.70;;;3.97;;
68089;SDS011;54880;50.986;6.990;2024-02-04T05:25:29;10.90;;;4.07;;
68089;SDS011;54880;50.986;6.990;2024-02-04T05:27:55;11.32;;;4.63;;
68089;SDS011;54880;50.986;6.990;2024-02-04T05:30:21;13.03;;;3.97;;
68089;SDS011;54880;50.986;6.990;2024-02-04T05:32:46;9.50;;;3.80;;
68089;SDS011;54880;50.986;6.990;2024-02-04T05:35:11;9.50;;;4.00;;
68089;SDS011;54880;50.986;6.990;2024-02-04T05:37:36;10.17;;;4.00;;
68089;SDS011;54880;50.986;6.990;2024-02-04T05:40:02;10.47;;;4.00;;
68089;SDS011;54880;50.986;6.990;2024-02-04T05:42:28;10.27;;;4.10;;
68089;SDS011;54880;50.986;6.990;2024-02-04T05:44:53;8.93;;;4.00;;
68089;SDS011;54880;50.986;6.990;2024-02-04T05:47:19;10.47;;;4.40;;
68089;SDS011;54880;50.986;6.990;2024-02-04T05:49:44;10.90;;;4.50;;
68089;SDS011;54880;50.986;6.990;2024-02-04T05:52:09;12.67;;;4.17;;
68089;SDS011;54880;50.986;6.990;2024-02-04T05:54:37;12.50;;;4.00;;
68089;SDS011;54880;50.986;6.990;2024-02-04T05:57:04;9.80;;;3.65;;
68089;SDS011;54880;50.986;6.990;2024-02-04T05:59:29;9.40;;;4.00;;
68089;SDS011;54880;50.986;6.990;2024-02-04T06:01:55;9.47;;;3.90;;
68089;SDS011;54880;50.986;6.990;2024-02-04T06:04:20;9.47;;;4.07;;
68089;SDS011;54880;50.986;6.990;2024-02-04T06:06:45;9.00;;;4.10;;
68089;SDS011;54880;50.986;6.990;2024-02-04T06:09:11;9.68;;;3.90;;
68089;SDS011;54880;50.986;6.990;2024-02-04T06:11:36;13.07;;;5.10;;
68089;SDS011;54880;50.986;6.990;2024-02-04T06:14:01;11.07;;;3.77;;
68089;SDS011;54880;50.986;6.990;2024-02-04T06:16:26;13.17;;;4.20;;
68089;SDS011;54880;50.986;6.990;2024-02-04T06:18:52;11.50;;;4.10;;
68089;SDS011;54880;50.986;6.990;2024-02-04T06:21:20;10.70;;;4.35;;
68089;SDS011;54880;50.986;6.990;2024-02-04T06:23:45;10.33;;;4.60;;
68089;SDS011;54880;50.986;6.990;2024-02-04T06:26:11;11.20;;;4.30;;
68089;SDS011;54880;50.986;6.990;2024-02-04T06:28:36;11.37;;;4.80;;
68089;SDS011;54880;50.986;6.990;2024-02-04T06:31:01;11.90;;;4.73;;
68089;SDS011;54880;50.986;6.990;2024-02-04T06:33:27;9.48;;;4.30;;
68089;SDS011;54880;50.986;6.990;2024-02-04T06:35:52;10.27;;;5.03;;
68089;SDS011;54880;50.986;6.990;2024-02-04T06:38:17;11.02;;;4.80;;
68089;SDS011;54880;50.986;6.990;2024-02-04T06:40:43;10.27;;;5.15;;
68089;SDS011;54880;50.986;6.990;2024-02-04T06:43:08;9.25;;;4.32;;
68089;SDS011;54880;50.986;6.990;2024-02-04T06:45:33;9.33;;;4.10;;
68089;SDS011;54880;50.986;6.990;2024-02-04T06:47:59;9.40;;;4.17;;
68089;SDS011;54880;50.986;6.990;2024-02-04T06:50:24;9.83;;;3.50;;
68089;SDS011;54880;50.986;6.990;2024-02-04T06:52:49;10.20;;;3.43;;
68089;SDS011;54880;50.986;6.990;2024-02-04T06:55:14;8.57;;;3.53;;
68089;SDS011;54880;50.986;6.990;2024-02-04T06:57:40;8.33;;;3.70;;
68089;SDS011;54880;50.986;6.990;2024-02-04T07:00:05;8.60;;;3.20;;
68089;SDS011;54880;50.986;6.990;2024-02-04T07:02:33;9.45;;;3.35;;
68089;SDS011;54880;50.986;6.990;2024-02-04T07:04:58;10.30;;;3.40;;
68089;SDS011;54880;50.986;6.990;2024-02-04T07:07:23;9.53;;;2.90;;
68089;SDS011;54880;50.986;6.990;2024-02-04T07:09:48;7.33;;;2.90;;
68089;SDS011;54880;50.986;6.990;2024-02-04T07:12:14;5.97;;;2.10;;
68089;SDS011;54880;50.986;6.990;2024-02-04T07:14:39;6.83;;;2.43;;
68089;SDS011;54880;50.986;6.990;2024-02-04T07:17:04;6.60;;;2.57;;
68089;SDS011;54880;50.986;6.990;2024-02-04T07:19:29;5.33;;;1.90;;
68089;SDS011;54880;50.986;6.990;2024-02-04T07:21:55;5.07;;;1.43;;
68089;SDS011;54880;50.986;6.990;2024-02-04T07:24:20;6.63;;;1.30;;
68089;SDS011;54880;50.986;6.990;2024-02-04T07:26:46;5.68;;;1.50;;
68089;SDS011;54880;50.986;6.990;2024-02-04T07:29:14;4.00;;;1.10;;
68089;SDS011;54880;50.986;6.990;2024-02-04T07:31:40;5.22;;;1.58;;
68089;SDS011;54880;50.986;6.990;2024-02-04T07:34:05;5.13;;;1.30;;
68089;SDS011;54880;50.986;6.990;2024-02-04T07:36:30;4.80;;;1.60;;
68089;SDS011;54880;50.986;6.990;2024-02-04T07:38:56;5.50;;;1.23;;
68089;SDS011;54880;50.986;6.990;2024-02-04T07:41:21;4.80;;;1.50;;
68089;SDS011;54880;50.986;6.990;2024-02-04T07:43:46;5.20;;;1.47;;
68089;SDS011;54880;50.986;6.990;2024-02-04T07:46:13;4.60;;;1.50;;
68089;SDS011;54880;50.986;6.990;2024-02-04T07:48:38;5.47;;;1.60;;
68089;SDS011;54880;50.986;6.990;2024-02-04T07:51:03;4.47;;;1.47;;
68089;SDS011;54880;50.986;6.990;2024-02-04T07:53:29;4.53;;;1.23;;
68089;SDS011;54880;50.986;6.990;2024-02-04T07:55:54;4.60;;;1.20;;
68089;SDS011;54880;50.986;6.990;2024-02-04T07:58:19;5.83;;;1.83;;
68089;SDS011;54880;50.986;6.990;2024-02-04T08:00:44;4.80;;;1.40;;
68089;SDS011;54880;50.986;6.990;2024-02-04T08:03:10;6.13;;;1.43;;
68089;SDS011;54880;50.986;6.990;2024-02-04T08:05:35;4.17;;;1.20;;
68089;SDS011;54880;50.986;6.990;2024-02-04T08:08:00;4.47;;;1.20;;
68089;SDS011;54880;50.986;6.990;2024-02-04T08:10:26;4.72;;;1.30;;
68089;SDS011;54880;50.986;6.990;2024-02-04T08:12:51;4.07;;;1.20;;
68089;SDS011;54880;50.986;6.990;2024-02-04T08:15:18;4.80;;;1.40;;
68089;SDS011;54880;50.986;6.990;2024-02-04T08:17:43;5.63;;;1.77;;
68089;SDS011;54880;50.986;6.990;2024-02-04T08:20:08;5.57;;;1.40;;
68089;SDS011;54880;50.986;6.990;2024-02-04T08:22:34;5.68;;;1.70;;
68089;SDS011;54880;50.986;6.990;2024-02-04T08:24:59;10.67;;;1.80;;
68089;SDS011;54880;50.986;6.990;2024-02-04T08:27:24;6.07;;;1.53;;
68089;SDS011;54880;50.986;6.990;2024-02-04T08:29:50;5.83;;;1.77;;
68089;SDS011;54880;50.986;6.990;2024-02-04T08:32:15;4.80;;;1.50;;
68089;SDS011;54880;50.986;6.990;2024-02-04T08:34:40;5.43;;;1.73;;
68089;SDS011;54880;50.986;6.990;2024-02-04T08:37:05;6.70;;;1.90;;
68089;SDS011;54880;50.986;6.990;2024-02-04T08:39:31;5.97;;;1.80;;
68089;SDS011;54880;50.986;6.990;2024-02-04T08:41:56;5.47;;;1.83;;
68089;SDS011;54880;50.986;6.990;2024-02-04T08:44:21;5.00;;;1.70;;
68089;SDS011;54880;50.986;6.990;2024-02-04T08:46:47;6.47;;;1.60;;
68089;SDS011;54880;50.986;6.990;2024-02-04T08:49:12;6.80;;;1.97;;
68089;SDS011;54880;50.986;6.990;2024-02-04T08:51:37;6.13;;;2.17;;
68089;SDS011;54880;50.986;6.990;2024-02-04T08:54:03;5.93;;;1.70;;
68089;SDS011;54880;50.986;6.990;2024-02-04T08:56:28;6.32;;;2.00;;
68089;SDS011;54880;50.986;6.990;2024-02-04T08:58:53;5.90;;;2.20;;
68089;SDS011;54880;50.986;6.990;2024-02-04T09:01:19;5.83;;;1.87;;
68089;SDS011;54880;50.986;6.990;2024-02-04T09:03:44;5.57;;;2.00;;
68089;SDS011;54880;50.986;6.990;2024-02-04T09:06:09;5.53;;;1.70;;
68089;SDS011;54880;50.986;6.990;2024-02-04T09:08:35;5.43;;;1.90;;
68089;SDS011;54880;50.986;6.990;2024-02-04T09:11:00;5.20;;;1.80;;
68089;SDS011;54880;50.986;6.990;2024-02-04T09:13:25;5.60;;;1.60;;
68089;SDS011;54880;50.986;6.990;2024-02-04T09:15:50;4.70;;;1.50;;
68089;SDS011;54880;50.986;6.990;2024-02-04T09:18:16;7.07;;;1.70;;
68089;SDS011;54880;50.986;6.990;2024-02-04T09:20:41;4.93;;;1.70;;
68089;SDS011;54880;50.986;6.990;2024-02-04T09:23:06;5.83;;;2.10;;
68089;SDS011;54880;50.986;6.990;2024-02-04T09:25:32;6.07;;;1.50;;
68089;SDS011;54880;50.986;6.990;2024-02-04T09:27:57;5.30;;;1.53;;
68089;SDS011;54880;50.986;6.990;2024-02-04T09:30:22;4.83;;;1.50;;
68089;SDS011;54880;50.986;6.990;2024-02-04T09:32:48;4.70;;;1.67;;
68089;SDS011;54880;50.986;6.990;2024-02-04T09:35:13;5.00;;;1.20;;
68089;SDS011;54880;50.986;6.990;2024-02-04T09:37:38;4.97;;;1.73;;
68089;SDS011;54880;50.986;6.990;2024-02-04T09:40:04;4.47;;;1.30;;
68089;SDS011;54880;50.986;6.990;2024-02-04T09:42:29;4.77;;;1.03;;
68089;SDS011;54880;50.986;6.990;2024-02-04T09:44:56;4.70;;;1.30;;
68089;SDS011;54880;50.986;6.990;2024-02-04T09:47:21;4.40;;;1.13;;
68089;SDS011;54880;50.986;6.990;2024-02-04T09:49:47;4.10;;;1.10;;
68089;SDS011;54880;50.986;6.990;2024-02-04T09:52:12;4.33;;;1.23;;
68089;SDS011;54880;50.986;6.990;2024-02-04T09:54:43;4.18;;;1.27;;
68089;SDS011;54880;50.986;6.990;2024-02-04T09:57:09;6.57;;;1.20;;
68089;SDS011;54880;50.986;6.990;2024-02-04T09:59:34;4.97;;;1.30;;
68089;SDS011;54880;50.986;6.990;2024-02-04T10:02:00;4.30;;;1.20;;
68089;SDS011;54880;50.986;6.990;2024-02-04T10:04:26;4.60;;;1.27;;
68089;SDS011;54880;50.986;6.990;2024-02-04T10:06:51;4.07;;;1.23;;
68089;SDS011;54880;50.986;6.990;2024-02-04T10:09:16;5.10;;;1.40;;
68089;SDS011;54880;50.986;6.990;2024-02-04T10:11:42;4.17;;;1.37;;
68089;SDS011;54880;50.986;6.990;2024-02-04T10:14:07;5.63;;;1.43;;
68089;SDS011;54880;50.986;6.990;2024-02-04T10:16:35;5.47;;;1.40;;
68089;SDS011;54880;50.986;6.990;2024-02-04T10:19:00;4.57;;;1.40;;
68089;SDS011;54880;50.986;6.990;2024-02-04T10:21:25;5.73;;;1.60;;
68089;SDS011;54880;50.986;6.990;2024-02-04T10:23:50;6.63;;;1.80;;
68089;SDS011;54880;50.986;6.990;2024-02-04T10:26:16;5.27;;;1.40;;
68089;SDS011;54880;50.986;6.990;2024-02-04T10:28:44;5.22;;;1.60;;
68089;SDS011;54880;50.986;6.990;2024-02-04T10:31:09;5.20;;;1.60;;
68089;SDS011;54880;50.986;6.990;2024-02-04T10:33:35;4.80;;;1.77;;
68089;SDS011;54880;50.986;6.990;2024-02-04T10:36:00;6.00;;;1.90;;
68089;SDS011;54880;50.986;6.990;2024-02-04T10:38:25;6.40;;;1.70;;
68089;SDS011;54880;50.986;6.990;2024-02-04T10:40:53;5.30;;;1.90;;
68089;SDS011;54880;50.986;6.990;2024-02-04T10:43:18;6.15;;;1.83;;
68089;SDS011;54880;50.986;6.990;2024-02-04T10:45:44;6.83;;;2.00;;
68089;SDS011;54880;50.986;6.990;2024-02-04T10:48:10;6.15;;;1.70;;
68089;SDS011;54880;50.986;6.990;2024-02-04T10:50:36;6.68;;;2.38;;
68089;SDS011;54880;50.986;6.990;2024-02-04T10:53:04;14.80;;;3.80;;
68089;SDS011;54880;50.986;6.990;2024-02-04T10:55:30;5.07;;;1.70;;
68089;SDS011;54880;50.986;6.990;2024-02-04T10:57:56;5.18;;;1.77;;
68089;SDS011;54880;50.986;6.990;2024-02-04T11:00:21;5.88;;;2.00;;
68089;SDS011;54880;50.986;6.990;2024-02-04T11:02:46;6.87;;;1.80;;
68089;SDS011;54880;50.986;6.990;2024-02-04T11:05:14;5.20;;;1.75;;
68089;SDS011;54880;50.986;6.990;2024-02-04T11:07:41;6.07;;;1.40;;
68089;SDS011;54880;50.986;6.990;2024-02-04T11:10:08;5.93;;;1.60;;
68089;SDS011;54880;50.986;6.990;2024-02-04T11:12:34;7.43;;;1.70;;
68089;SDS011;54880;50.986;6.990;2024-02-04T11:15:03;4.78;;;1.35;;
68089;SDS011;54880;50.986;6.990;2024-02-04T11:20:12;5.77;;;1.50;;
68089;SDS011;54880;50.986;6.990;2024-02-04T11:22:45;4.63;;;1.20;;
68089;SDS011;54880;50.986;6.990;2024-02-04T11:27:38;4.10;;;1.13;;
68089;SDS011;54880;50.986;6.990;2024-02-04T11:30:04;4.00;;;0.83;;
68089;SDS011;54880;50.986;6.990;2024-02-04T11:32:30;4.28;;;0.85;;
68089;SDS011;54880;50.986;6.990;2024-02-04T11:34:55;4.43;;;1.30;;
68089;SDS011;54880;50.986;6.990;2024-02-04T11:37:20;3.77;;;1.03;;
68089;SDS011;54880;50.986;6.990;2024-02-04T11:39:52;3.93;;;1.10;;
68089;SDS011;54880;50.986;6.990;2024-02-04T11:42:18;6.03;;;1.15;;
68089;SDS011;54880;50.986;6.990;2024-02-04T11:44:44;4.43;;;1.05;;
68089;SDS011;54880;50.986;6.990;2024-02-04T11:47:10;5.10;;;1.10;;
68089;SDS011;54880;50.986;6.990;2024-02-04T11:49:35;4.72;;;1.30;;
68089;SDS011;54880;50.986;6.990;2024-02-04T11:52:01;4.90;;;1.33;;
68089;SDS011;54880;50.986;6.990;2024-02-04T11:54:26;5.30;;;1.33;;
68089;SDS011;54880;50.986;6.990;2024-02-04T11:56:52;4.23;;;1.33;;
68089;SDS011;54880;50.986;6.990;2024-02-04T11:59:19;4.50;;;1.30;;
68089;SDS011;54880;50.986;6.990;2024-02-04T12:01:46;5.40;;;1.95;;
68089;SDS011;54880;50.986;6.990;2024-02-04T12:04:17;4.87;;;1.40;;
68089;SDS011;54880;50.986;6.990;2024-02-04T12:06:43;7.45;;;2.15;;
68089;SDS011;54880;50.986;6.990;2024-02-04T12:09:08;6.70;;;1.60;;
68089;SDS011;54880;50.986;6.990;2024-02-04T12:11:35;4.85;;;1.52;;
68089;SDS011;54880;50.986;6.990;2024-02-04T12:14:00;6.68;;;1.70;;
68089;SDS011;54880;50.986;6.990;2024-02-04T12:16:26;9.27;;;2.20;;
68089;SDS011;54880;50.986;6.990;2024-02-04T12:18:51;5.27;;;1.70;;
68089;SDS011;54880;50.986;6.990;2024-02-04T12:21:17;5.30;;;1.93;;
68089;SDS011;54880;50.986;6.990;2024-02-04T12:23:42;8.07;;;2.70;;
68089;SDS011;54880;50.986;6.990;2024-02-04T12:26:07;5.53;;;1.70;;
68089;SDS011;54880;50.986;6.990;2024-02-04T12:28:33;6.60;;;1.80;;
68089;SDS011;54880;50.986;6.990;2024-02-04T12:30:58;5.10;;;1.50;;
68089;SDS011;54880;50.986;6.990;2024-02-04T12:33:24;4.82;;;1.40;;
68089;SDS011;54880;50.986;6.990;2024-02-04T12:35:50;6.63;;;1.60;;
68089;SDS011;54880;50.986;6.990;2024-02-04T12:38:16;5.50;;;1.42;;
68089;SDS011;54880;50.986;6.990;2024-02-04T12:40:42;5.55;;;1.50;;
68089;SDS011;54880;50.986;6.990;2024-02-04T12:43:10;6.47;;;1.37;;
68089;SDS011;54880;50.986;6.990;2024-02-04T12:45:35;5.10;;;1.60;;
68089;SDS011;54880;50.986;6.990;2024-02-04T12:48:01;5.87;;;1.40;;
68089;SDS011;54880;50.986;6.990;2024-02-04T12:50:26;4.87;;;1.70;;
68089;SDS011;54880;50.986;6.990;2024-02-04T12:53:08;4.00;;;1.27;;
68089;SDS011;54880;50.986;6.990;2024-02-04T12:55:34;5.40;;;1.05;;
68089;SDS011;54880;50.986;6.990;2024-02-04T12:58:09;4.43;;;1.30;;
68089;SDS011;54880;50.986;6.990;2024-02-04T13:00:37;5.15;;;1.35;;
68089;SDS011;54880;50.986;6.990;2024-02-04T13:03:03;4.33;;;1.30;;
68089;SDS011;54880;50.986;6.990;2024-02-04T13:05:28;4.88;;;1.60;;
68089;SDS011;54880;50.986;6.990;2024-02-04T13:07:56;5.13;;;1.60;;
68089;SDS011;54880;50.986;6.990;2024-02-04T13:10:24;4.87;;;1.70;;
68089;SDS011;54880;50.986;6.990;2024-02-04T13:13:08;4.85;;;1.52;;
68089;SDS011;54880;50.986;6.990;2024-02-04T13:15:38;5.18;;;1.10;;
68089;SDS011;54880;50.986;6.990;2024-02-04T13:18:04;5.30;;;2.00;;
68089;SDS011;54880;50.986;6.990;2024-02-04T13:20:29;6.67;;;1.83;;
68089;SDS011;54880;50.986;6.990;2024-02-04T13:22:55;5.53;;;1.80;;
68089;SDS011;54880;50.986;6.990;2024-02-04T13:25:20;6.00;;;1.73;;
68089;SDS011;54880;50.986;6.990;2024-02-04T13:27:47;5.15;;;1.58;;
68089;SDS011;54880;50.986;6.990;2024-02-04T13:30:12;5.13;;;1.90;;
68089;SDS011;54880;50.986;6.990;2024-02-04T13:32:41;5.10;;;1.80;;
68089;SDS011;54880;50.986;6.990;2024-02-04T13:35:07;5.18;;;1.77;;
68089;SDS011;54880;50.986;6.990;2024-02-04T13:37:34;5.80;;;2.30;;
68089;SDS011;54880;50.986;6.990;2024-02-04T13:40:01;5.90;;;2.10;;
68089;SDS011;54880;50.986;6.990;2024-02-04T13:42:26;6.53;;;2.27;;
68089;SDS011;54880;50.986;6.990;2024-02-04T13:44:51;6.10;;;2.30;;
68089;SDS011;54880;50.986;6.990;2024-02-04T13:47:16;6.00;;;2.37;;
68089;SDS011;54880;50.986;6.990;2024-02-04T13:49:42;5.63;;;2.30;;
68089;SDS011;54880;50.986;6.990;2024-02-04T13:52:07;6.17;;;2.20;;
68089;SDS011;54880;50.986;6.990;2024-02-04T13:54:32;5.10;;;1.90;;
68089;SDS011;54880;50.986;6.990;2024-02-04T13:56:58;7.13;;;2.00;;
68089;SDS011;54880;50.986;6.990;2024-02-04T13:59:23;6.97;;;1.87;;
68089;SDS011;54880;50.986;6.990;2024-02-04T14:01:48;6.17;;;2.37;;
68089;SDS011;54880;50.986;6.990;2024-02-04T14:04:15;7.90;;;2.10;;
68089;SDS011;54880;50.986;6.990;2024-02-04T14:06:40;7.30;;;2.20;;
68089;SDS011;54880;50.986;6.990;2024-02-04T14:09:06;4.90;;;1.90;;
68089;SDS011;54880;50.986;6.990;2024-02-04T14:11:31;5.60;;;2.00;;
68089;SDS011;54880;50.986;6.990;2024-02-04T14:13:57;5.25;;;1.75;;
68089;SDS011;54880;50.986;6.990;2024-02-04T14:16:22;5.37;;;1.90;;
68089;SDS011;54880;50.986;6.990;2024-02-04T14:18:47;5.03;;;1.40;;
68089;SDS011;54880;50.986;6.990;2024-02-04T14:21:13;5.23;;;1.70;;
68089;SDS011;54880;50.986;6.990;2024-02-04T14:23:40;5.07;;;1.57;;
68089;SDS011;54880;50.986;6.990;2024-02-04T14:26:06;4.75;;;1.40;;
68089;SDS011;54880;50.986;6.990;2024-02-04T14:28:33;5.82;;;1.73;;
68089;SDS011;54880;50.986;6.990;2024-02-04T14:31:06;5.22;;;1.90;;
68089;SDS011;54880;50.986;6.990;2024-02-04T14:33:31;6.03;;;1.90;;
68089;SDS011;54880;50.986;6.990;2024-02-04T14:35:56;5.83;;;1.60;;
68089;SDS011;54880;50.986;6.990;2024-02-04T14:38:22;4.82;;;1.70;;
68089;SDS011;54880;50.986;6.990;2024-02-04T14:40:47;5.23;;;1.63;;
68089;SDS011;54880;50.986;6.990;2024-02-04T14:43:13;5.40;;;1.60;;
68089;SDS011;54880;50.986;6.990;2024-02-04T14:45:40;4.75;;;1.73;;
68089;SDS011;54880;50.986;6.990;2024-02-04T14:48:05;5.50;;;2.23;;